Time;durP1;ratioP1;P1;durP2;ratioP2;P2;SDS_P1;SDS_P2;PMS_P1;PMS_P2;Temp;Humidity;BMP_temperature;BMP_pressure;BME280_temperature;BME280_humidity;BME280_pressure;Samples;Min_cycle;Max_cycle;Signal;HPM_P1;HPM_P2
2023/12/05 00:00:48;;;;;;;0.80;0.80;;;7.30;99.90;;;;;;5071795;28;20484;-82
2023/12/05 00:03:14;;;;;;;1.27;1.02;;;7.30;99.90;;;;;;5054342;28;20090;-82
2023/12/05 00:05:40;;;;;;;0.45;0.45;;;7.30;99.90;;;;;;5072859;28;20032;-80
2023/12/05 00:08:05;;;;;;;0.05;0.05;;;7.20;99.90;;;;;;5055069;28;20031;-83
2023/12/05 00:10:32;;;;;;;0.65;0.65;;;7.30;99.90;;;;;;5071565;28;20027;-82
2023/12/05 00:13:00;;;;;;;0.30;0.30;;;7.40;99.90;;;;;;5072799;28;20385;-82
2023/12/05 00:15:26;;;;;;;0.10;0.10;;;7.40;99.90;;;;;;5057484;28;20028;-74
2023/12/05 00:17:52;;;;;;;1.40;1.30;;;7.60;99.90;;;;;;5072150;28;20044;-74
2023/12/05 00:20:18;;;;;;;0.10;0.10;;;7.60;99.90;;;;;;5071600;28;20031;-74
2023/12/05 00:22:44;;;;;;;0.28;0.28;;;7.90;99.90;;;;;;5054687;28;20028;-74
2023/12/05 00:25:10;;;;;;;0.10;0.10;;;7.80;99.90;;;;;;5071452;28;20060;-74
2023/12/05 00:27:36;;;;;;;2.03;1.85;;;7.60;99.90;;;;;;5072633;28;20020;-74
2023/12/05 00:30:03;;;;;;;0.47;0.25;;;7.50;99.90;;;;;;5071441;28;20367;-74
2023/12/05 00:32:28;;;;;;;3.03;2.83;;;7.50;99.90;;;;;;5071620;28;20071;-75
2023/12/05 00:34:54;;;;;;;0.40;0.40;;;7.40;99.90;;;;;;5072645;28;20024;-82
2023/12/05 00:37:20;;;;;;;1.08;0.45;;;7.40;99.90;;;;;;5072448;28;20036;-82
2023/12/05 00:39:46;;;;;;;0.70;0.55;;;7.50;99.90;;;;;;5072383;28;20021;-83
2023/12/05 00:42:12;;;;;;;0.57;0.57;;;7.50;99.90;;;;;;5072751;28;20033;-83
2023/12/05 00:44:37;;;;;;;0.32;0.32;;;7.60;99.90;;;;;;5070916;28;20024;-82
2023/12/05 00:47:05;;;;;;;0.80;0.40;;;7.70;99.90;;;;;;5071048;28;20044;-82
2023/12/05 00:49:34;;;;;;;0.75;0.75;;;7.80;99.90;;;;;;5072251;28;20086;-82
2023/12/05 00:52:00;;;;;;;3.53;0.57;;;7.70;99.90;;;;;;5072393;28;20074;-82
2023/12/05 00:54:26;;;;;;;0.22;0.22;;;7.60;99.90;;;;;;5072495;28;20028;-82
2023/12/05 00:56:53;;;;;;;0.10;0.10;;;7.70;99.90;;;;;;5071199;28;20045;-82
2023/12/05 00:59:19;;;;;;;0.30;0.25;;;7.50;99.90;;;;;;5072465;28;20177;-82
2023/12/05 01:01:45;;;;;;;0.20;0.20;;;7.50;99.90;;;;;;5070278;28;20112;-82
2023/12/05 01:04:10;;;;;;;2.08;1.23;;;7.60;99.90;;;;;;5071119;28;20043;-83
2023/12/05 01:06:36;;;;;;;4.22;1.50;;;7.70;99.90;;;;;;5072395;28;20111;-80
2023/12/05 01:09:03;;;;;;;0.40;0.30;;;7.50;99.90;;;;;;5071154;28;20465;-82
2023/12/05 01:11:29;;;;;;;3.85;3.03;;;7.50;99.90;;;;;;5070903;28;20024;-82
2023/12/05 01:13:54;;;;;;;1.75;1.20;;;7.40;99.90;;;;;;5069379;28;20495;-83
2023/12/05 01:16:20;;;;;;;2.97;2.72;;;7.50;99.90;;;;;;5059258;28;20528;-81
2023/12/05 01:18:46;;;;;;;8.68;1.27;;;7.40;99.90;;;;;;5072425;28;20484;-82
2023/12/05 01:21:12;;;;;;;1.23;1.13;;;7.40;99.90;;;;;;5072145;28;20028;-82
2023/12/05 01:23:38;;;;;;;0.30;0.30;;;7.50;99.90;;;;;;5072040;28;20389;-83
2023/12/05 01:26:05;;;;;;;0.10;0.10;;;7.50;99.90;;;;;;5072253;28;20052;-82
2023/12/05 01:28:30;;;;;;;1.85;1.00;;;7.50;99.90;;;;;;5072276;28;20028;-82
2023/12/05 01:30:57;;;;;;;0.00;0.00;;;7.60;99.90;;;;;;5071687;28;20116;-83
2023/12/05 01:33:23;;;;;;;0.47;0.47;;;7.60;99.90;;;;;;5072052;28;20107;-82
2023/12/05 01:35:49;;;;;;;4.03;2.05;;;7.70;99.90;;;;;;5071998;28;20516;-80
2023/12/05 01:38:14;;;;;;;0.30;0.30;;;7.70;99.90;;;;;;5071877;28;20546;-82
2023/12/05 01:40:40;;;;;;;0.22;0.22;;;7.80;99.90;;;;;;5072005;28;20036;-82
2023/12/05 01:43:06;;;;;;;1.50;1.40;;;7.60;99.90;;;;;;5071963;28;20057;-82
2023/12/05 01:45:32;;;;;;;0.25;0.25;;;7.70;99.90;;;;;;5074662;28;20025;-79
2023/12/05 01:47:58;;;;;;;1.52;1.42;;;7.60;99.90;;;;;;5075393;28;20032;-81
2023/12/05 01:50:27;;;;;;;0.17;0.17;;;7.40;99.90;;;;;;5075399;28;20120;-82
2023/12/05 01:52:56;;;;;;;0.10;0.10;;;7.50;99.90;;;;;;5075535;28;20020;-79
2023/12/05 01:55:23;;;;;;;0.40;0.40;;;7.60;99.90;;;;;;5075344;28;20086;-82
2023/12/05 01:57:49;;;;;;;0.43;0.43;;;7.70;99.90;;;;;;5075321;28;20116;-82
2023/12/05 02:00:16;;;;;;;0.38;0.38;;;7.80;99.90;;;;;;5074774;28;20031;-82
2023/12/05 02:02:46;;;;;;;21.13;5.47;;;7.80;99.90;;;;;;5075192;28;20103;-82
2023/12/05 02:05:14;;;;;;;0.10;0.10;;;7.60;99.90;;;;;;5073771;28;20040;-82
2023/12/05 02:07:41;;;;;;;0.38;0.30;;;7.50;99.90;;;;;;5075265;28;20044;-82
2023/12/05 02:10:08;;;;;;;0.50;0.50;;;7.40;99.90;;;;;;5074799;28;20020;-83
2023/12/05 02:12:37;;;;;;;0.20;0.20;;;7.50;99.90;;;;;;5073873;28;20073;-82
2023/12/05 02:15:04;;;;;;;3.40;0.70;;;7.40;99.90;;;;;;5064270;28;20419;-82
2023/12/05 02:18:03;;;;;;;2.38;1.38;;;7.40;99.90;;;;;;5070477;28;20040;-82
2023/12/05 02:20:57;;;;;;;0.08;0.08;;;7.50;99.90;;;;;;5074904;28;20035;-79
2023/12/05 02:24:01;;;;;;;0.10;0.10;;;7.80;99.90;;;;;;5053478;28;20477;-82
2023/12/05 02:26:43;;;;;;;0.25;0.25;;;7.80;99.90;;;;;;5047676;28;20056;-82
2023/12/05 02:29:08;;;;;;;;;;;7.70;99.90;;;;;;5074769;28;20347;-82
2023/12/05 02:31:34;;;;;;;0.52;0.52;;;7.70;99.90;;;;;;5074669;28;19962;-81
2023/12/05 02:34:00;;;;;;;0.10;0.10;;;7.50;99.90;;;;;;5073509;28;20033;-81
2023/12/05 02:36:35;;;;;;;0.10;0.10;;;7.60;99.90;;;;;;5074364;28;20021;-83
2023/12/05 02:39:24;;;;;;;0.15;0.15;;;7.60;99.90;;;;;;5074712;28;20032;-80
2023/12/05 02:41:53;;;;;;;0.15;0.15;;;7.70;99.90;;;;;;5072957;28;20028;-82
2023/12/05 02:44:24;;;;;;;0.10;0.10;;;7.70;99.90;;;;;;5074178;28;20377;-80
2023/12/05 02:46:50;;;;;;;0.10;0.10;;;7.80;99.90;;;;;;5074386;28;20099;-82
2023/12/05 02:49:17;;;;;;;0.10;0.10;;;7.70;99.90;;;;;;5073373;28;20052;-83
2023/12/05 02:51:43;;;;;;;0.00;0.00;;;7.70;99.90;;;;;;5074205;28;20425;-82
2023/12/05 02:54:09;;;;;;;0.63;0.63;;;7.70;99.90;;;;;;5056343;28;20071;-82
2023/12/05 02:56:35;;;;;;;0.20;0.20;;;7.70;99.90;;;;;;5073234;28;20041;-80
2023/12/05 02:59:02;;;;;;;0.20;0.20;;;7.90;99.90;;;;;;5072819;28;20056;-80
2023/12/05 03:01:28;;;;;;;0.70;0.70;;;7.80;99.90;;;;;;5074005;28;20097;-82
2023/12/05 03:03:54;;;;;;;0.00;0.00;;;7.70;99.90;;;;;;5073994;28;20473;-81
2023/12/05 03:06:19;;;;;;;0.77;0.70;;;7.80;99.90;;;;;;5072675;28;20017;-81
2023/12/05 03:08:45;;;;;;;0.20;0.20;;;7.80;99.90;;;;;;5073681;28;20540;-81
2023/12/05 03:11:11;;;;;;;0.10;0.10;;;7.90;99.90;;;;;;5072800;28;20040;-81
2023/12/05 03:13:40;;;;;;;0.35;0.35;;;7.90;99.90;;;;;;5073085;28;20032;-82
2023/12/05 03:16:09;;;;;;;0.10;0.10;;;7.90;99.90;;;;;;5059709;28;20128;-81
2023/12/05 03:18:35;;;;;;;0.00;0.00;;;7.90;99.90;;;;;;5073594;28;20089;-82
2023/12/05 03:21:01;;;;;;;0.30;0.30;;;7.90;99.90;;;;;;5072624;28;20024;-82
2023/12/05 03:23:27;;;;;;;2.65;2.38;;;8.00;99.90;;;;;;5073571;28;20016;-80
2023/12/05 03:25:53;;;;;;;0.45;0.45;;;7.90;99.90;;;;;;5055669;28;20772;-82
2023/12/05 03:28:18;;;;;;;0.10;0.10;;;7.90;99.90;;;;;;5072440;28;20033;-82
2023/12/05 03:30:44;;;;;;;0.10;0.10;;;8.20;99.90;;;;;;5073561;28;20107;-81
2023/12/05 03:33:10;;;;;;;10.43;1.55;;;8.00;99.90;;;;;;5073066;28;20035;-81
2023/12/05 03:35:36;;;;;;;0.10;0.10;;;7.90;99.90;;;;;;5072322;28;20550;-82
2023/12/05 03:38:01;;;;;;;1.48;1.38;;;7.80;99.90;;;;;;5073166;28;20488;-82
2023/12/05 03:40:27;;;;;;;0.45;0.30;;;7.70;99.90;;;;;;5073125;28;20126;-82
2023/12/05 03:42:54;;;;;;;0.00;0.00;;;7.60;99.90;;;;;;5073069;28;20047;-83
2023/12/05 03:45:20;;;;;;;0.32;0.32;;;7.40;99.90;;;;;;5073283;28;20032;-81
2023/12/05 03:47:45;;;;;;;0.50;0.50;;;7.40;99.90;;;;;;5073011;28;20538;-82
2023/12/05 03:50:11;;;;;;;0.10;0.10;;;7.20;99.90;;;;;;5071904;28;20033;-82
2023/12/05 03:52:37;;;;;;;2.20;1.00;;;7.20;99.90;;;;;;5071678;28;20039;-80
2023/12/05 03:55:03;;;;;;;0.10;0.10;;;7.20;99.90;;;;;;5057034;28;20021;-81
2023/12/05 03:57:29;;;;;;;0.10;0.10;;;7.30;99.90;;;;;;5051461;28;20041;-82
2023/12/05 03:59:55;;;;;;;0.20;0.20;;;7.40;99.90;;;;;;5056313;28;20017;-82
2023/12/05 04:02:20;;;;;;;1.30;0.63;;;7.20;99.90;;;;;;5071491;28;20069;-82
2023/12/05 04:04:46;;;;;;;0.10;0.10;;;7.30;99.90;;;;;;5058722;28;20085;-80
2023/12/05 04:07:12;;;;;;;0.08;0.08;;;7.30;99.90;;;;;;5072343;28;20028;-82
2023/12/05 04:09:38;;;;;;;0.00;0.00;;;7.30;99.90;;;;;;5072493;28;20036;-80
2023/12/05 04:12:04;;;;;;;0.35;0.35;;;7.40;99.90;;;;;;5065551;28;20029;-82
2023/12/05 04:14:30;;;;;;;0.20;0.20;;;7.40;99.90;;;;;;5066214;28;20029;-81
2023/12/05 04:16:56;;;;;;;0.03;0.03;;;7.40;99.90;;;;;;5072645;28;20377;-81
2023/12/05 04:19:22;;;;;;;0.10;0.10;;;7.40;99.90;;;;;;5071609;28;20460;-81
2023/12/05 04:21:47;;;;;;;2.20;1.70;;;7.30;99.90;;;;;;5072406;28;20032;-82
2023/12/05 04:24:13;;;;;;;0.10;0.10;;;7.30;99.90;;;;;;5072344;28;20040;-82
2023/12/05 04:26:39;;;;;;;0.10;0.10;;;7.20;99.90;;;;;;5072730;28;20025;-73
2023/12/05 04:29:05;;;;;;;0.10;0.10;;;7.30;99.90;;;;;;5065832;28;20082;-73
2023/12/05 04:31:32;;;;;;;0.20;0.20;;;7.30;99.90;;;;;;5064665;28;20028;-73
2023/12/05 04:33:57;;;;;;;2.80;2.55;;;7.40;99.90;;;;;;5072075;28;20051;-73
2023/12/05 04:36:25;;;;;;;5.07;2.95;;;7.40;99.90;;;;;;5071240;28;20405;-74
2023/12/05 04:38:51;;;;;;;0.10;0.10;;;7.20;99.90;;;;;;5054047;28;20426;-74
2023/12/05 04:41:17;;;;;;;0.25;0.25;;;7.20;99.90;;;;;;5072520;28;20029;-73
2023/12/05 04:43:42;;;;;;;0.38;0.38;;;7.20;99.90;;;;;;5072116;28;20465;-74
2023/12/05 04:46:09;;;;;;;4.78;1.65;;;7.10;99.90;;;;;;5072469;28;20066;-73
2023/12/05 04:48:34;;;;;;;0.47;0.47;;;7.10;99.90;;;;;;5071202;28;20099;-74
2023/12/05 04:51:00;;;;;;;0.10;0.10;;;7.20;99.90;;;;;;5072216;28;20029;-74
2023/12/05 04:53:27;;;;;;;0.73;0.73;;;7.10;99.90;;;;;;5071895;28;20025;-74
2023/12/05 04:55:53;;;;;;;0.00;0.00;;;7.20;99.90;;;;;;5072098;28;20032;-74
2023/12/05 04:58:18;;;;;;;0.00;0.00;;;7.20;99.90;;;;;;5072467;28;20039;-75
2023/12/05 05:00:44;;;;;;;0.10;0.10;;;7.30;99.90;;;;;;5072174;28;20446;-82
2023/12/05 05:03:11;;;;;;;8.20;5.47;;;7.20;99.90;;;;;;5065732;28;20477;-76
2023/12/05 05:05:37;;;;;;;0.00;0.00;;;7.30;99.90;;;;;;5064574;28;20033;-82
2023/12/05 05:08:03;;;;;;;0.98;0.85;;;7.30;99.90;;;;;;5070683;28;20027;-82
2023/12/05 05:10:29;;;;;;;0.32;0.32;;;7.20;99.90;;;;;;5072359;28;20423;-82
2023/12/05 05:12:55;;;;;;;0.10;0.10;;;7.30;99.90;;;;;;5072065;28;20362;-83
2023/12/05 05:15:21;;;;;;;0.40;0.40;;;7.30;99.90;;;;;;5070876;28;20035;-81
2023/12/05 05:17:47;;;;;;;0.00;0.00;;;7.30;99.90;;;;;;5072049;28;20041;-82
2023/12/05 05:20:13;;;;;;;0.00;0.00;;;7.30;99.90;;;;;;5075990;28;20410;-82
2023/12/05 05:22:39;;;;;;;0.10;0.10;;;7.30;99.90;;;;;;5075289;28;20115;-86
2023/12/05 05:25:06;;;;;;;0.45;0.45;;;7.30;99.90;;;;;;5076381;28;20055;-85
2023/12/05 05:27:31;;;;;;;0.30;0.30;;;7.60;99.90;;;;;;5065218;28;20024;-88
2023/12/05 05:29:57;;;;;;;1.33;1.25;;;7.40;99.90;;;;;;5054488;28;20143;-86
2023/12/05 05:32:23;;;;;;;0.00;0.00;;;7.40;99.90;;;;;;5056496;28;20029;-86
2023/12/05 05:34:49;;;;;;;0.00;0.00;;;7.40;99.90;;;;;;5055846;28;20123;-83
2023/12/05 05:37:17;;;;;;;0.00;0.00;;;7.40;99.90;;;;;;5057225;28;20086;-81
2023/12/05 05:39:43;;;;;;;0.10;0.10;;;7.30;99.90;;;;;;5057527;28;20104;-84
2023/12/05 05:42:09;;;;;;;2.72;1.45;;;7.40;99.90;;;;;;5059222;28;20477;-85
2023/12/05 05:44:35;;;;;;;3.53;3.20;;;7.60;99.90;;;;;;5055319;28;20032;-83
2023/12/05 05:47:02;;;;;;;0.82;0.80;;;7.50;99.90;;;;;;5055280;28;20045;-83
2023/12/05 05:49:27;;;;;;;0.00;0.00;;;7.40;99.90;;;;;;5055777;28;20022;-83
2023/12/05 05:51:53;;;;;;;5.47;0.88;;;7.40;99.90;;;;;;5054723;28;20037;-82
2023/12/05 05:54:19;;;;;;;0.10;0.10;;;7.40;99.90;;;;;;5055478;28;20032;-83
2023/12/05 05:56:45;;;;;;;0.32;0.32;;;7.40;99.90;;;;;;5055247;28;20112;-73
2023/12/05 05:59:11;;;;;;;2.75;1.55;;;7.50;99.90;;;;;;5055211;28;20094;-74
2023/12/05 06:01:36;;;;;;;1.48;1.38;;;7.50;99.90;;;;;;5055210;28;20482;-82
2023/12/05 06:04:03;;;;;;;0.00;0.00;;;7.50;99.90;;;;;;5054774;28;20052;-79
2023/12/05 06:06:29;;;;;;;0.10;0.10;;;7.40;99.90;;;;;;5073957;28;20028;-83
2023/12/05 06:08:55;;;;;;;0.93;0.93;;;7.30;99.90;;;;;;5074537;28;20062;-82
2023/12/05 06:11:21;;;;;;;2.05;1.95;;;7.30;99.90;;;;;;5073853;28;20071;-82
2023/12/05 06:13:47;;;;;;;0.10;0.10;;;7.30;99.90;;;;;;5075069;28;20027;-82
2023/12/05 06:16:13;;;;;;;0.00;0.00;;;7.30;99.90;;;;;;5074443;28;20032;-82
2023/12/05 06:18:38;;;;;;;0.80;0.80;;;7.20;99.90;;;;;;5075132;28;20020;-82
2023/12/05 06:21:04;;;;;;;1.55;1.00;;;7.20;99.90;;;;;;5074709;28;20457;-83
2023/12/05 06:23:30;;;;;;;1.25;1.15;;;7.20;99.90;;;;;;5074779;28;20499;-82
2023/12/05 06:25:56;;;;;;;0.00;0.00;;;7.10;99.90;;;;;;5074957;28;20024;-82
2023/12/05 06:28:22;;;;;;;3.33;3.03;;;7.10;99.90;;;;;;5074738;28;20021;-82
2023/12/05 06:30:48;;;;;;;0.10;0.10;;;6.90;99.90;;;;;;5073693;28;20024;-82
2023/12/05 06:33:14;;;;;;;2.10;1.95;;;7.00;99.90;;;;;;5074663;28;20039;-83
2023/12/05 06:35:39;;;;;;;0.35;0.35;;;7.10;99.90;;;;;;5074545;28;20354;-82
2023/12/05 06:38:05;;;;;;;2.30;1.67;;;7.10;99.90;;;;;;5074538;28;20471;-82
2023/12/05 06:40:31;;;;;;;0.50;0.50;;;7.10;99.90;;;;;;5074652;28;20017;-82
2023/12/05 06:42:57;;;;;;;1.35;1.27;;;7.10;99.90;;;;;;5074356;28;20027;-83
2023/12/05 06:45:22;;;;;;;0.43;0.43;;;7.10;99.90;;;;;;5074642;28;20035;-80
2023/12/05 06:47:48;;;;;;;1.02;0.98;;;7.30;99.90;;;;;;5074444;28;20028;-82
2023/12/05 06:50:15;;;;;;;6.85;3.28;;;7.30;99.90;;;;;;5073987;28;20021;-83
2023/12/05 06:52:41;;;;;;;0.30;0.30;;;7.20;99.90;;;;;;5074184;28;20030;-82
2023/12/05 06:55:08;;;;;;;0.20;0.20;;;7.40;99.90;;;;;;5074249;28;20103;-77
2023/12/05 06:57:34;;;;;;;0.00;0.00;;;7.40;99.90;;;;;;5074137;28;20040;-83
2023/12/05 07:00:00;;;;;;;10.15;5.85;;;7.40;99.90;;;;;;5075195;28;20042;-82
2023/12/05 07:02:26;;;;;;;0.57;0.57;;;7.20;99.90;;;;;;5072262;28;20075;-81
2023/12/05 07:04:52;;;;;;;5.05;4.75;;;7.20;99.90;;;;;;5060057;28;20021;-83
2023/12/05 07:07:18;;;;;;;3.35;0.88;;;7.20;99.90;;;;;;5073812;28;20082;-82
2023/12/05 07:09:44;;;;;;;0.65;0.50;;;7.40;99.90;;;;;;5073863;28;20020;-80
2023/12/05 07:12:09;;;;;;;2.55;2.35;;;7.30;99.90;;;;;;5073753;28;20024;-80
2023/12/05 07:14:35;;;;;;;0.60;0.60;;;7.30;99.90;;;;;;5073697;28;20560;-82
2023/12/05 07:17:02;;;;;;;0.20;0.20;;;7.20;99.90;;;;;;5072394;28;20105;-83
2023/12/05 07:19:28;;;;;;;0.20;0.20;;;7.30;99.90;;;;;;5071976;28;20032;-83
2023/12/05 07:21:54;;;;;;;3.28;3.03;;;7.30;99.90;;;;;;5073802;28;20040;-84
2023/12/05 07:24:19;;;;;;;0.80;0.80;;;7.30;99.90;;;;;;5073805;28;20031;-82
2023/12/05 07:26:46;;;;;;;0.00;0.00;;;7.30;99.90;;;;;;5073646;28;20103;-82
2023/12/05 07:29:13;;;;;;;8.45;1.85;;;7.40;99.90;;;;;;5073229;28;20036;-80
2023/12/05 07:31:38;;;;;;;0.00;0.00;;;7.30;99.90;;;;;;5073584;28;20477;-83
2023/12/05 07:34:04;;;;;;;3.58;2.33;;;7.30;99.90;;;;;;5073232;28;20028;-77
2023/12/05 07:36:30;;;;;;;2.17;1.35;;;7.20;99.90;;;;;;5073695;28;20487;-82
2023/12/05 07:38:56;;;;;;;2.90;2.63;;;7.30;99.90;;;;;;5073341;28;20039;-82
2023/12/05 07:41:25;;;;;;;0.95;0.90;;;7.30;99.90;;;;;;5073192;28;20362;-80
2023/12/05 07:43:54;;;;;;;1.40;1.35;;;7.30;99.90;;;;;;5072877;28;20382;-80
2023/12/05 07:46:20;;;;;;;0.17;0.15;;;7.40;99.90;;;;;;5073218;28;20431;-80
2023/12/05 07:48:46;;;;;;;1.23;0.88;;;7.30;99.90;;;;;;5072617;28;20021;-80
2023/12/05 07:51:16;;;;;;;1.55;1.45;;;7.30;99.90;;;;;;5073375;28;20499;-80
2023/12/05 07:53:43;;;;;;;0.28;0.28;;;7.10;99.90;;;;;;5059437;28;20048;-80
2023/12/05 07:56:10;;;;;;;0.35;0.35;;;7.30;99.90;;;;;;5060720;28;20029;-81
2023/12/05 07:58:35;;;;;;;0.35;0.35;;;7.40;99.90;;;;;;5053514;28;20500;-81
2023/12/05 08:01:01;;;;;;;1.70;1.60;;;7.30;99.90;;;;;;5052858;28;20047;-80
2023/12/05 08:03:28;;;;;;;0.40;0.40;;;7.20;99.90;;;;;;5049747;28;20024;-81
2023/12/05 08:05:54;;;;;;;0.30;0.30;;;7.30;99.90;;;;;;5039707;28;20026;-81
2023/12/05 08:08:20;;;;;;;4.50;0.40;;;7.20;99.90;;;;;;5045903;28;20074;-80
2023/12/05 08:10:48;;;;;;;1.25;0.47;;;7.20;99.90;;;;;;5061167;28;20063;-82
2023/12/05 08:13:13;;;;;;;0.40;0.40;;;7.30;99.90;;;;;;5057154;28;20113;-82
2023/12/05 08:15:39;;;;;;;0.00;0.00;;;7.30;99.90;;;;;;5055014;28;20111;-80
2023/12/05 08:18:05;;;;;;;1.10;1.10;;;7.30;99.90;;;;;;5051458;28;20029;-76
2023/12/05 08:20:31;;;;;;;1.25;1.08;;;7.40;99.90;;;;;;5066088;28;20028;-77
2023/12/05 08:22:56;;;;;;;0.80;0.80;;;7.50;99.90;;;;;;5058183;28;20039;-86
2023/12/05 08:25:22;;;;;;;0.10;0.10;;;7.60;99.90;;;;;;5054934;28;20393;-75
2023/12/05 08:27:49;;;;;;;0.68;0.68;;;7.60;99.90;;;;;;5052667;28;20389;-76
2023/12/05 08:30:15;;;;;;;3.00;2.65;;;7.60;99.90;;;;;;5066734;28;20113;-76
2023/12/05 08:32:41;;;;;;;4.03;1.65;;;7.70;99.90;;;;;;5066014;28;20586;-76
2023/12/05 08:35:08;;;;;;;7.30;4.38;;;7.50;99.90;;;;;;5059147;28;20044;-76
2023/12/05 08:37:33;;;;;;;5.53;3.65;;;7.40;99.90;;;;;;5053338;28;20040;-77
2023/12/05 08:39:59;;;;;;;2.45;2.08;;;7.40;99.90;;;;;;5052901;28;20017;-77
2023/12/05 08:42:28;;;;;;;2.45;1.33;;;7.30;99.90;;;;;;5068126;28;20412;-76
2023/12/05 08:44:54;;;;;;;2.80;2.58;;;7.20;99.90;;;;;;5064261;28;20029;-76
2023/12/05 08:47:20;;;;;;;0.98;0.88;;;7.10;99.90;;;;;;5057121;28;20116;-77
2023/12/05 08:49:46;;;;;;;0.52;0.52;;;7.20;99.90;;;;;;5054300;28;20032;-76
2023/12/05 08:52:12;;;;;;;0.05;0.05;;;7.30;99.90;;;;;;5053724;28;20033;-76
2023/12/05 08:54:38;;;;;;;6.03;1.75;;;7.30;99.90;;;;;;5058948;28;20023;-76
2023/12/05 08:57:04;;;;;;;0.47;0.47;;;7.00;99.90;;;;;;5065702;28;20037;-76
2023/12/05 08:59:29;;;;;;;0.10;0.10;;;7.10;99.90;;;;;;5060926;28;20028;-74
2023/12/05 09:01:55;;;;;;;1.00;0.90;;;7.20;99.90;;;;;;5056813;28;20108;-77
2023/12/05 09:04:21;;;;;;;0.57;0.57;;;7.20;99.90;;;;;;5054536;28;20408;-77
2023/12/05 09:06:47;;;;;;;1.85;1.45;;;7.10;99.90;;;;;;5074101;28;20470;-77
2023/12/05 09:09:12;;;;;;;0.38;0.38;;;7.10;99.90;;;;;;5075137;28;20431;-76
2023/12/05 09:11:38;;;;;;;0.05;0.05;;;7.00;99.90;;;;;;5075554;28;20540;-77
2023/12/05 09:14:05;;;;;;;2.30;1.98;;;7.20;99.90;;;;;;5075060;28;20174;-77
2023/12/05 09:16:32;;;;;;;3.13;2.97;;;7.20;99.90;;;;;;5075342;28;20067;-77
2023/12/05 09:18:58;;;;;;;2.40;2.20;;;7.00;99.90;;;;;;5074058;28;20525;-78
2023/12/05 09:21:24;;;;;;;0.52;0.35;;;6.90;99.90;;;;;;5074982;28;20107;-77
2023/12/05 09:23:49;;;;;;;2.95;2.75;;;6.80;99.90;;;;;;5070002;28;20024;-77
2023/12/05 09:26:15;;;;;;;7.53;2.28;;;6.80;99.90;;;;;;5075050;28;20414;-77
2023/12/05 09:28:41;;;;;;;1.08;0.85;;;6.70;99.90;;;;;;5070527;28;20032;-77
2023/12/05 09:31:07;;;;;;;1.55;0.73;;;6.70;99.90;;;;;;5066139;28;20040;-77
2023/12/05 09:33:33;;;;;;;1.55;1.45;;;6.60;99.90;;;;;;5059990;28;20020;-77
2023/12/05 09:35:59;;;;;;;3.30;2.25;;;6.50;99.90;;;;;;5057573;28;20124;-77
2023/12/05 09:38:24;;;;;;;0.00;0.00;;;6.40;99.90;;;;;;5056573;28;20107;-84
2023/12/05 09:40:51;;;;;;;0.10;0.10;;;6.60;99.90;;;;;;5061026;28;20023;-74
2023/12/05 09:43:22;;;;;;;2.95;2.10;;;6.70;99.90;;;;;;5060323;28;20489;-77
2023/12/05 09:45:58;;;;;;;0.15;0.15;;;6.90;99.90;;;;;;5057470;28;20028;-77
2023/12/05 09:48:32;;;;;;;1.67;1.60;;;6.80;99.90;;;;;;5024355;28;20401;-76
2023/12/05 09:50:58;;;;;;;2.70;2.53;;;6.70;99.90;;;;;;5044426;28;20086;-78
2023/12/05 09:53:26;;;;;;;0.80;0.80;;;6.80;99.90;;;;;;5056952;28;20025;-75
2023/12/05 09:55:52;;;;;;;3.67;2.92;;;6.70;99.90;;;;;;5063925;28;20037;-74
2023/12/05 09:58:18;;;;;;;2.75;2.22;;;6.60;99.90;;;;;;5064915;28;20118;-74
2023/12/05 10:00:45;;;;;;;5.07;1.65;;;6.50;99.90;;;;;;5058607;28;20056;-75
2023/12/05 10:03:15;;;;;;;1.27;0.88;;;6.60;99.90;;;;;;5053043;28;20473;-75
2023/12/05 10:05:42;;;;;;;0.10;0.10;;;6.70;99.90;;;;;;5067871;28;20040;-75
2023/12/05 10:08:11;;;;;;;2.25;1.08;;;6.70;99.90;;;;;;5073764;28;20035;-77
2023/12/05 10:10:44;;;;;;;1.15;1.15;;;6.90;99.90;;;;;;5073235;28;20047;-79
2023/12/05 10:13:11;;;;;;;1.58;1.48;;;7.00;99.90;;;;;;5073867;28;20024;-79
2023/12/05 10:15:39;;;;;;;3.80;3.50;;;6.90;99.90;;;;;;5075808;28;20090;-80
2023/12/05 10:18:05;;;;;;;1.15;1.13;;;6.70;99.90;;;;;;5078587;28;20033;-79
2023/12/05 10:20:31;;;;;;;12.05;1.80;;;6.60;99.90;;;;;;5075932;28;20020;-81
2023/12/05 10:22:57;;;;;;;1.35;1.05;;;6.60;99.90;;;;;;5071417;28;20142;-81
2023/12/05 10:25:23;;;;;;;2.60;0.77;;;6.50;99.90;;;;;;5076451;28;20087;-80
2023/12/05 10:28:08;;;;;;;4.97;2.70;;;6.30;99.90;;;;;;5074049;28;20020;-83
2023/12/05 10:30:37;;;;;;;1.33;1.25;;;6.30;99.90;;;;;;5063127;28;20523;-76
2023/12/05 10:33:15;;;;;;;0.13;0.13;;;6.30;99.90;;;;;;5062427;28;20099;-74
2023/12/05 10:35:43;;;;;;;0.60;0.60;;;6.30;99.90;;;;;;5074479;28;20035;-75
2023/12/05 10:38:11;;;;;;;1.10;0.73;;;6.50;99.90;;;;;;5072786;28;20119;-76
2023/12/05 10:40:56;;;;;;;0.75;0.45;;;6.20;99.90;;;;;;5072770;28;20037;-75
2023/12/05 10:43:24;;;;;;;0.00;0.00;;;6.30;99.90;;;;;;5072306;28;20103;-74
2023/12/05 10:45:51;;;;;;;1.45;1.27;;;6.30;99.90;;;;;;5073071;28;20457;-75
2023/12/05 10:48:18;;;;;;;0.00;0.00;;;6.30;99.90;;;;;;5073246;28;20419;-75
2023/12/05 10:50:48;;;;;;;0.10;0.10;;;6.60;99.90;;;;;;5073680;28;20113;-75
2023/12/05 10:53:15;;;;;;;0.25;0.20;;;6.60;99.90;;;;;;5064805;28;20109;-75
2023/12/05 10:55:41;;;;;;;4.30;2.72;;;6.50;99.90;;;;;;5071460;28;20036;-74
2023/12/05 10:58:11;;;;;;;1.08;1.08;;;6.20;99.90;;;;;;5072801;28;20131;-75
2023/12/05 11:00:38;;;;;;;0.30;0.30;;;6.20;99.90;;;;;;5072145;28;20056;-75
2023/12/05 11:03:04;;;;;;;1.05;0.95;;;6.40;99.90;;;;;;5053889;28;20546;-75
2023/12/05 11:05:31;;;;;;;4.57;1.55;;;6.50;99.90;;;;;;5054028;28;20032;-74
2023/12/05 11:07:57;;;;;;;3.53;2.30;;;6.70;99.90;;;;;;5054197;28;20102;-75
2023/12/05 11:10:28;;;;;;;0.38;0.38;;;6.70;99.90;;;;;;5067268;28;20017;-75
2023/12/05 11:12:55;;;;;;;0.90;0.88;;;6.50;99.90;;;;;;5062148;28;20131;-74
2023/12/05 11:15:35;;;;;;;0.93;0.90;;;6.50;99.90;;;;;;5056450;28;20028;-74
2023/12/05 11:18:20;;;;;;;0.85;0.85;;;6.60;99.90;;;;;;5054375;28;20186;-75
2023/12/05 11:21:21;;;;;;;1.02;0.55;;;6.40;99.90;;;;;;5051541;28;20024;-74
2023/12/05 11:23:59;;;;;;;1.20;0.52;;;6.20;99.90;;;;;;5054445;28;20367;-74
2023/12/05 11:27:02;;;;;;;5.07;0.85;;;6.30;99.90;;;;;;5050812;28;20353;-75
2023/12/05 11:29:59;;;;;;;2.60;1.85;;;6.50;99.90;;;;;;5048605;28;20482;-75
2023/12/05 11:32:40;;;;;;;5.70;1.02;;;6.50;99.90;;;;;;5045819;28;20374;-74
2023/12/05 11:35:26;;;;;;;0.90;0.38;;;6.40;99.90;;;;;;5061360;28;20449;-74
2023/12/05 11:38:12;;;;;;;3.83;2.00;;;6.30;99.90;;;;;;5045475;28;20033;-74
2023/12/05 11:40:39;;;;;;;8.70;2.85;;;6.30;99.90;;;;;;5051499;28;20017;-74
2023/12/05 11:43:09;;;;;;;3.90;2.83;;;6.30;99.90;;;;;;5062034;28;20039;-74
2023/12/05 11:45:37;;;;;;;1.40;0.82;;;6.30;99.90;;;;;;5056986;28;20064;-74
2023/12/05 11:48:03;;;;;;;0.45;0.45;;;6.30;99.90;;;;;;5050371;28;20482;-74
2023/12/05 11:50:50;;;;;;;2.88;2.38;;;6.10;99.90;;;;;;5043455;28;20024;-74
2023/12/05 11:53:18;;;;;;;1.63;1.55;;;6.00;99.90;;;;;;5051914;28;20111;-74
2023/12/05 11:55:47;;;;;;;3.78;2.67;;;6.10;99.90;;;;;;5062179;28;20440;-74
2023/12/05 11:58:29;;;;;;;2.45;1.85;;;6.10;99.90;;;;;;5062060;28;20033;-74
2023/12/05 12:01:05;;;;;;;2.40;0.73;;;6.00;99.90;;;;;;5051811;28;20033;-74
2023/12/05 12:03:53;;;;;;;2.38;1.80;;;6.10;99.90;;;;;;5051790;28;20402;-73
2023/12/05 12:06:22;;;;;;;0.05;0.05;;;6.20;99.90;;;;;;5055505;28;20037;-73
2023/12/05 12:08:50;;;;;;;1.20;1.10;;;6.30;99.90;;;;;;5065684;28;20096;-74
2023/12/05 12:11:17;;;;;;;0.95;0.88;;;6.30;99.90;;;;;;5053678;28;20029;-74
2023/12/05 12:13:43;;;;;;;0.10;0.10;;;6.60;99.90;;;;;;5053028;28;20017;-74
2023/12/05 12:16:18;;;;;;;0.00;0.00;;;6.70;99.90;;;;;;5054179;28;20526;-74
2023/12/05 12:18:44;;;;;;;0.00;0.00;;;6.90;99.90;;;;;;5058586;28;20488;-74
2023/12/05 12:21:10;;;;;;;1.42;1.38;;;6.90;99.90;;;;;;5060687;28;20469;-74
2023/12/05 12:23:36;;;;;;;0.20;0.20;;;6.90;99.90;;;;;;5050806;28;20103;-74
2023/12/05 12:26:02;;;;;;;0.00;0.00;;;7.00;99.90;;;;;;5055863;28;20014;-74
2023/12/05 12:28:33;;;;;;;1.00;0.98;;;6.90;99.90;;;;;;5055619;28;20119;-74
2023/12/05 12:31:00;;;;;;;0.00;0.00;;;6.80;99.90;;;;;;5067595;28;20024;-74
2023/12/05 12:33:40;;;;;;;1.77;1.63;;;6.90;99.90;;;;;;5059727;28;20108;-74
2023/12/05 12:36:11;;;;;;;0.52;0.52;;;6.80;99.90;;;;;;5058361;28;20115;-74
2023/12/05 12:38:37;;;;;;;1.67;1.35;;;6.80;99.90;;;;;;5052694;28;20037;-74
2023/12/05 12:41:04;;;;;;;3.13;0.60;;;6.70;99.90;;;;;;5061317;28;20025;-74
2023/12/05 12:43:30;;;;;;;0.82;0.82;;;7.00;99.90;;;;;;5062542;28;20428;-74
2023/12/05 12:45:57;;;;;;;1.27;1.17;;;6.90;99.90;;;;;;5059572;28;20025;-74
2023/12/05 12:48:22;;;;;;;3.60;3.30;;;6.80;99.90;;;;;;5058977;28;20037;-74
2023/12/05 12:50:48;;;;;;;6.00;3.80;;;6.70;99.90;;;;;;5069617;28;20111;-74
2023/12/05 12:53:14;;;;;;;0.00;0.00;;;6.50;99.90;;;;;;5054062;28;20413;-74
2023/12/05 12:55:40;;;;;;;0.32;0.30;;;6.60;99.90;;;;;;5057429;28;20025;-74
2023/12/05 12:58:06;;;;;;;10.23;2.60;;;6.60;99.90;;;;;;5064578;28;20187;-74
2023/12/05 13:00:36;;;;;;;1.10;1.10;;;6.70;99.90;;;;;;5062296;28;20024;-74